This is the latest recevied weather packets stored in our database for station/object E7HQ-1. If no packets are shown the sender has not sent any weather packets the latest 10 day(s).
| Time | Temp. | Humidity | Pressure | Rain* | Wind** | Luminosity | Snow |
|---|---|---|---|---|---|---|---|
| 1777713119 | 17.22° C | 29% | 1032.7 hPa | - | - | - | - |
| 1777712218 | 16.67° C | 30% | 1032.9 hPa | - | - | - | - |
| 1777711318 | 16.67° C | 29% | 1032.8 hPa | - | - | - | - |
| 1777710418 | 16.67° C | 29% | 1032.9 hPa | - | - | - | - |
| 1777709518 | 16.11° C | 29% | 1033.1 hPa | - | - | - | - |
| 1777708617 | 15.56° C | 30% | 1033.1 hPa | - | - | - | - |
| 1777707717 | 15° C | 29% | 1033.1 hPa | - | - | - | - |
| 1777706817 | 15° C | 29% | 1033 hPa | - | - | - | - |
| 1777705917 | 14.44° C | 31% | 1033.1 hPa | - | - | - | - |
| 1777705016 | 14.44° C | 31% | 1033.1 hPa | - | - | - | - |
| 1777704116 | 13.89° C | 32% | 1033.1 hPa | - | - | - | - |
| 1777703215 | 13.89° C | 33% | 1033.2 hPa | - | - | - | - |
| 1777702320 | 12.78° C | 33% | 1033.3 hPa | - | - | - | - |
| 1777701420 | 12.22° C | 36% | 1033.4 hPa | - | - | - | - |
| 1777700520 | 10° C | 40% | 1033.4 hPa | - | - | - | - |
| 1777699620 | 9.44° C | 41% | 1033.3 hPa | - | - | - | - |
| 1777698719 | 8.89° C | 42% | 1033.3 hPa | - | - | - | - |
| 1777697819 | 8.89° C | 41% | 1033.3 hPa | - | - | - | - |
| 1777696919 | 8.33° C | 43% | 1033.2 hPa | - | - | - | - |
| 1777696019 | 7.78° C | 42% | 1033.2 hPa | - | - | - | - |
| 1777695118 | 7.78° C | 42% | 1033.2 hPa | - | - | - | - |
| 1777694218 | 7.78° C | 42% | 1033.2 hPa | - | - | - | - |
| 1777693318 | 7.78° C | 42% | 1033.1 hPa | - | - | - | - |
| 1777692418 | 7.78° C | 42% | 1033.1 hPa | - | - | - | - |
| 1777691518 | 7.78° C | 42% | 1033 hPa | - | - | - | - |
* Rain since midnight (hover to see other rain measurements)
** Current wind speed in m/s (hover to see current wind gust speed)